createdAt,value
2018-12-02T00:01:55.564Z,22.77
2018-12-02T00:05:59.059Z,23.10
2018-12-02T00:10:04.326Z,23.50
2018-12-02T00:14:07.795Z,23.53
2018-12-02T00:18:12.806Z,22.70
2018-12-02T00:22:16.331Z,24.50
2018-12-02T00:26:19.837Z,23.13
2018-12-02T00:30:25.244Z,23.17
2018-12-02T00:34:28.691Z,22.80
2018-12-02T00:38:32.164Z,22.83
2018-12-02T00:42:35.660Z,23.63
2018-12-02T00:46:39.083Z,22.80
2018-12-02T00:50:42.568Z,22.07
2018-12-02T00:54:46.029Z,20.40
2018-12-02T00:58:49.530Z,25.07
2018-12-02T01:02:53.076Z,21.77
2018-12-02T01:06:56.601Z,22.17
2018-12-02T01:11:00.100Z,23.63
2018-12-02T01:15:04.331Z,23.90
2018-12-02T01:19:07.782Z,24.73
2018-12-02T01:23:11.249Z,24.37
2018-12-02T01:27:14.731Z,23.93
2018-12-02T01:31:18.194Z,22.17
2018-12-02T01:35:21.643Z,24.03
2018-12-02T01:39:25.159Z,24.03
2018-12-02T01:43:28.683Z,22.07
2018-12-02T01:47:32.135Z,22.27
2018-12-02T01:51:35.673Z,23.03
2018-12-02T01:55:39.181Z,24.53
2018-12-02T01:59:42.747Z,23.90
2018-12-02T02:03:46.263Z,22.50
2018-12-02T02:07:49.767Z,23.03
2018-12-02T02:11:53.272Z,22.10
2018-12-02T02:15:57.167Z,24.40
2018-12-02T02:20:00.681Z,24.37
2018-12-02T02:24:05.003Z,21.97
2018-12-02T02:28:08.487Z,22.57
2018-12-02T02:32:11.981Z,22.33
2018-12-02T02:36:15.527Z,21.30
2018-12-02T02:40:21.156Z,21.00
2018-12-02T02:44:24.599Z,21.57
2018-12-02T02:48:28.128Z,23.07
2018-12-02T02:52:31.664Z,21.67
2018-12-02T02:56:35.221Z,22.50
2018-12-02T03:00:38.721Z,22.17
2018-12-02T03:04:42.191Z,21.80
2018-12-02T03:08:45.737Z,23.13
2018-12-02T03:12:51.292Z,23.07
2018-12-02T03:16:54.803Z,22.10
2018-12-02T03:20:58.270Z,20.43
2018-12-02T03:25:01.753Z,21.23
2018-12-02T03:29:05.523Z,22.03
2018-12-02T03:33:08.971Z,21.93
2018-12-02T03:37:12.431Z,22.27
2018-12-02T03:41:15.908Z,21.33
2018-12-02T03:45:20.341Z,22.73
2018-12-02T03:49:23.884Z,22.70
2018-12-02T03:53:27.324Z,18.67
2018-12-02T03:57:30.835Z,20.97
2018-12-02T04:01:34.356Z,21.27
2018-12-02T04:05:37.820Z,22.53
2018-12-02T04:09:41.406Z,21.30
2018-12-02T04:13:44.912Z,21.47
2018-12-02T04:17:48.377Z,22.83
2018-12-02T04:21:52.154Z,21.10
2018-12-02T04:25:55.567Z,21.07
2018-12-02T04:29:59.065Z,22.23
2018-12-02T04:34:02.601Z,21.13
2018-12-02T04:38:06.159Z,20.27
2018-12-02T04:42:09.661Z,22.07
2018-12-02T04:46:13.211Z,21.13
2018-12-02T04:50:21.493Z,21.10
2018-12-02T04:54:24.986Z,20.73
2018-12-02T04:58:28.500Z,21.53
2018-12-02T05:02:31.961Z,21.37
2018-12-02T05:06:35.490Z,23.37
2018-12-02T05:10:39.062Z,21.03
2018-12-02T05:14:42.553Z,22.37
2018-12-02T05:18:46.061Z,23.37
2018-12-02T05:22:49.616Z,24.83
2018-12-02T05:26:53.110Z,22.47
2018-12-02T05:30:56.668Z,23.43
2018-12-02T05:35:00.143Z,23.83
2018-12-02T05:39:04.642Z,22.77
2018-12-02T05:43:08.116Z,22.03
2018-12-02T05:47:11.567Z,22.03
2018-12-02T05:51:15.440Z,23.93
2018-12-02T05:55:22.534Z,23.20
2018-12-02T05:59:26.056Z,22.10
2018-12-02T06:03:29.518Z,23.73
2018-12-02T06:07:33.306Z,23.03
2018-12-02T06:11:37.017Z,23.83
2018-12-02T06:15:40.867Z,21.83
2018-12-02T06:19:44.320Z,24.13
2018-12-02T06:23:47.818Z,22.40
2018-12-02T06:27:51.390Z,22.50
2018-12-02T06:31:54.945Z,23.13
2018-12-02T06:35:58.459Z,24.20
2018-12-02T06:40:01.922Z,22.93
2018-12-02T06:44:05.652Z,22.23
2018-12-02T06:48:09.144Z,23.03
2018-12-02T06:52:12.607Z,21.77
2018-12-02T06:56:21.975Z,22.00
2018-12-02T07:00:43.064Z,21.47
2018-12-02T07:04:46.572Z,22.00
2018-12-02T07:08:50.011Z,21.37
2018-12-02T07:12:53.581Z,20.30
2018-12-02T07:16:57.029Z,22.10
2018-12-02T07:21:05.250Z,20.47
2018-12-02T07:25:14.829Z,19.47
2018-12-02T07:29:18.279Z,19.67
2018-12-02T07:33:21.780Z,20.20
2018-12-02T07:37:25.222Z,23.17
2018-12-02T07:41:28.722Z,20.30
2018-12-02T07:45:32.265Z,19.30
2018-12-02T07:49:35.825Z,20.53
2018-12-02T07:53:39.436Z,21.57
2018-12-02T07:57:42.968Z,20.77
2018-12-02T08:01:46.450Z,20.43
2018-12-02T08:05:49.986Z,20.60
2018-12-02T08:09:53.487Z,19.40
2018-12-02T08:13:57.022Z,19.93
2018-12-02T08:18:00.487Z,20.77
2018-12-02T08:22:04.396Z,20.07
2018-12-02T08:26:07.955Z,19.43
2018-12-02T08:30:13.907Z,21.10
2018-12-02T08:34:17.435Z,20.50
2018-12-02T08:38:20.963Z,20.50
2018-12-02T08:42:24.512Z,20.93
2018-12-02T08:46:28.063Z,21.00
2018-12-02T08:50:31.592Z,20.20
2018-12-02T08:54:35.052Z,20.93
2018-12-02T08:58:38.539Z,21.47
2018-12-02T09:02:42.460Z,21.90
2018-12-02T09:06:46.002Z,21.27
2018-12-02T09:10:49.490Z,21.73
2018-12-02T09:14:53.000Z,21.90
2018-12-02T09:18:56.459Z,22.80
2018-12-02T09:22:59.972Z,22.37
2018-12-02T09:27:04.033Z,23.10
2018-12-02T09:31:07.537Z,22.87
2018-12-02T09:35:11.311Z,22.20
2018-12-02T09:39:18.368Z,25.43
2018-12-02T09:43:18.474Z,25.73
2018-12-02T09:47:22.012Z,23.77
2018-12-02T09:51:25.501Z,24.27
2018-12-02T09:55:32.691Z,24.20
2018-12-02T09:59:36.209Z,24.47
2018-12-02T10:03:39.671Z,25.07
2018-12-02T10:07:43.599Z,24.80
2018-12-02T10:11:47.114Z,24.30
2018-12-02T10:15:50.798Z,25.60
2018-12-02T10:19:54.240Z,24.70
2018-12-02T10:23:57.687Z,25.37
2018-12-02T10:28:01.363Z,25.47
2018-12-02T10:32:04.818Z,25.70
2018-12-02T10:36:08.361Z,29.00
2018-12-02T10:40:13.832Z,27.47
2018-12-02T10:44:17.331Z,26.40
2018-12-02T10:48:20.776Z,27.33
2018-12-02T10:52:24.741Z,28.03
2018-12-02T10:56:28.257Z,26.03
2018-12-02T11:00:36.888Z,26.27
2018-12-02T11:04:40.483Z,27.23
2018-12-02T11:08:44.011Z,28.03
2018-12-02T11:12:47.473Z,26.73
2018-12-02T11:16:50.962Z,27.50
2018-12-02T11:20:54.440Z,26.90
2018-12-02T11:24:58.119Z,27.43
2018-12-02T11:29:02.880Z,26.93
2018-12-02T11:33:06.675Z,27.40
2018-12-02T11:37:10.246Z,27.93
2018-12-02T11:41:13.751Z,27.90
2018-12-02T11:45:17.284Z,27.90
2018-12-02T11:49:20.755Z,28.57
2018-12-02T11:53:24.286Z,30.57
2018-12-02T11:57:27.812Z,27.60
2018-12-02T12:01:31.309Z,29.80
2018-12-02T12:05:35.089Z,27.47
2018-12-02T12:09:38.799Z,29.27
2018-12-02T12:13:42.988Z,27.87
2018-12-02T12:17:48.992Z,29.13
2018-12-02T12:21:52.725Z,29.60
2018-12-02T12:25:56.275Z,30.73
2018-12-02T12:29:59.736Z,29.57
2018-12-02T12:34:03.208Z,30.67
2018-12-02T12:38:07.331Z,30.80
2018-12-02T12:42:10.800Z,30.30
2018-12-02T12:46:14.278Z,29.70
2018-12-02T12:50:17.816Z,31.63
2018-12-02T12:54:21.286Z,29.83
2018-12-02T12:58:24.793Z,29.80
2018-12-02T13:02:28.308Z,27.70
2018-12-02T13:06:31.802Z,29.90
2018-12-02T13:10:35.213Z,29.23
2018-12-02T13:14:39.040Z,28.47
2018-12-02T13:18:42.535Z,28.80
2018-12-02T13:22:46.995Z,29.07
2018-12-02T13:26:50.517Z,29.00
2018-12-02T13:30:53.951Z,29.20
2018-12-02T13:34:57.454Z,28.00
2018-12-02T13:39:01.374Z,28.67
2018-12-02T13:43:15.856Z,28.90
2018-12-02T13:47:19.345Z,27.70
2018-12-02T13:51:22.883Z,28.30
2018-12-02T13:55:28.907Z,28.47
2018-12-02T13:59:32.368Z,26.60
2018-12-02T14:03:35.949Z,26.77
2018-12-02T14:07:39.489Z,26.70
2018-12-02T14:11:42.972Z,24.80
2018-12-02T14:15:52.036Z,24.97
2018-12-02T14:19:55.575Z,25.43
2018-12-02T14:23:59.027Z,24.83
2018-12-02T14:28:02.512Z,24.60
2018-12-02T14:36:09.695Z,24.20
2018-12-02T14:40:14.498Z,23.43
2018-12-02T14:44:18.052Z,24.13
2018-12-02T14:48:21.560Z,22.77
2018-12-02T14:52:25.103Z,21.70
2018-12-02T14:56:28.733Z,22.43
2018-12-02T15:00:32.235Z,21.73
2018-12-02T15:04:36.006Z,21.00
2018-12-02T15:08:39.775Z,23.10
2018-12-02T15:12:43.791Z,23.23
2018-12-02T15:16:47.232Z,23.63
2018-12-02T15:20:51.116Z,23.90
2018-12-02T15:24:54.567Z,22.47
2018-12-02T15:28:58.068Z,22.43
2018-12-02T15:33:01.567Z,23.77
2018-12-02T15:37:05.412Z,22.57
2018-12-02T15:41:08.946Z,23.87
2018-12-02T15:45:13.466Z,24.10
2018-12-02T15:49:16.981Z,23.97
2018-12-02T15:53:20.477Z,22.97
2018-12-02T15:57:23.968Z,24.77
2018-12-02T16:01:27.443Z,21.67
2018-12-02T16:05:30.951Z,22.10
2018-12-02T16:09:34.406Z,22.33
2018-12-02T16:13:37.937Z,23.23
2018-12-02T16:17:41.498Z,21.60
2018-12-02T16:21:45.053Z,23.30
2018-12-02T16:25:48.507Z,23.03
2018-12-02T16:29:51.926Z,23.33
2018-12-02T16:33:55.438Z,23.10
2018-12-02T16:37:58.882Z,22.97
2018-12-02T16:42:03.448Z,22.23
2018-12-02T16:46:07.012Z,23.10
2018-12-02T16:50:18.959Z,23.30
2018-12-02T16:54:22.540Z,21.80
2018-12-02T16:59:30.384Z,23.37
2018-12-02T17:03:33.908Z,23.07
2018-12-02T17:07:37.415Z,23.33
2018-12-02T17:11:41.780Z,23.83
2018-12-02T17:15:45.244Z,24.20
2018-12-02T17:19:48.709Z,24.20
2018-12-02T17:23:53.930Z,22.43
2018-12-02T17:27:57.456Z,23.27
2018-12-02T17:32:08.779Z,23.23
2018-12-02T17:36:12.215Z,24.17
2018-12-02T17:40:19.900Z,22.53
2018-12-02T17:44:23.373Z,23.73
2018-12-02T17:48:27.902Z,24.27
2018-12-02T17:52:31.332Z,22.50
2018-12-02T17:56:34.791Z,23.00
2018-12-02T18:00:38.347Z,21.90
2018-12-02T18:04:41.856Z,23.23
2018-12-02T18:08:45.568Z,21.67
2018-12-02T18:12:49.119Z,23.20
2018-12-02T18:16:52.800Z,21.40
2018-12-02T18:20:56.835Z,19.57
2018-12-02T18:25:03.485Z,21.63
2018-12-02T18:29:07.154Z,22.50
2018-12-02T18:33:10.853Z,21.17
2018-12-02T18:37:15.169Z,21.17
2018-12-02T18:41:21.772Z,22.40
2018-12-02T18:45:25.866Z,23.03
2018-12-02T18:49:30.195Z,21.83
2018-12-02T18:53:34.691Z,22.60
2018-12-02T18:57:38.396Z,22.47
2018-12-02T19:01:42.027Z,23.93
2018-12-02T19:05:46.057Z,21.23
2018-12-02T19:09:49.622Z,21.00
2018-12-02T19:13:53.334Z,21.87
2018-12-02T19:17:57.017Z,23.07
2018-12-02T19:22:01.001Z,21.93
2018-12-02T19:26:05.128Z,21.63
2018-12-02T19:38:48.054Z,23.13
2018-12-02T19:42:51.734Z,22.93
2018-12-02T19:46:55.490Z,22.03
2018-12-02T19:50:59.898Z,23.73
2018-12-02T19:55:03.910Z,23.30
2018-12-02T19:59:07.624Z,24.73
2018-12-02T20:03:13.241Z,22.83
2018-12-02T20:07:17.239Z,23.50
2018-12-02T20:11:21.088Z,24.33
2018-12-02T20:15:25.363Z,23.50
2018-12-02T20:19:34.805Z,22.90
2018-12-02T20:23:43.624Z,22.27
2018-12-02T20:27:47.534Z,24.67
2018-12-02T20:31:51.181Z,22.37
2018-12-02T20:35:55.973Z,22.10
2018-12-02T20:39:59.722Z,26.10
2018-12-02T20:44:03.388Z,23.67
2018-12-02T20:48:07.211Z,22.20
2018-12-02T20:52:11.724Z,23.80
2018-12-02T20:56:15.234Z,24.23
2018-12-02T21:00:19.737Z,23.87
2018-12-02T21:04:23.469Z,23.70
2018-12-02T21:08:27.170Z,23.23
2018-12-02T21:12:31.148Z,22.13
2018-12-02T21:16:34.717Z,23.50
2018-12-02T21:20:38.630Z,24.13
2018-12-02T21:24:42.159Z,22.47
2018-12-02T21:28:45.699Z,24.30
2018-12-02T21:32:49.227Z,23.57
2018-12-02T21:36:52.759Z,23.40
2018-12-02T21:40:56.320Z,22.53
2018-12-02T21:44:59.905Z,24.03
2018-12-02T21:49:03.466Z,23.07
2018-12-02T21:53:07.015Z,23.03
2018-12-02T21:57:10.555Z,22.87
2018-12-02T22:01:14.135Z,24.53
2018-12-02T22:05:17.698Z,24.53
2018-12-02T22:09:21.197Z,24.43
2018-12-02T22:13:24.757Z,25.17
2018-12-02T22:17:28.407Z,25.30
2018-12-02T22:21:31.865Z,25.17
2018-12-02T22:25:35.526Z,26.03
2018-12-02T22:29:39.158Z,25.43
2018-12-02T22:33:42.825Z,24.37
2018-12-02T22:37:47.337Z,24.50
2018-12-02T22:41:52.715Z,24.87
2018-12-02T22:45:56.233Z,24.90
2018-12-02T22:49:59.876Z,25.40
2018-12-02T22:54:03.462Z,25.00
2018-12-02T22:58:07.944Z,26.00
2018-12-02T23:02:16.827Z,24.10
2018-12-02T23:06:20.427Z,25.07
2018-12-02T23:10:24.058Z,27.37
2018-12-02T23:14:27.657Z,24.73
2018-12-02T23:18:31.261Z,27.03
2018-12-02T23:22:34.967Z,26.90
2018-12-02T23:26:39.697Z,27.23
2018-12-02T23:30:45.642Z,27.83
2018-12-02T23:34:53.315Z,25.97
2018-12-02T23:38:56.907Z,26.93
2018-12-02T23:43:00.713Z,28.23
2018-12-02T23:47:04.281Z,28.40
2018-12-02T23:51:08.512Z,28.27
2018-12-02T23:55:16.958Z,28.00
2018-12-02T23:59:21.059Z,27.50
